sensor_id;sensor_type;location;lat;lon;timestamp;P1;durP1;ratioP1;P2;durP2;ratioP2
16387;SDS011;8303;53.446;9.988;2023-04-15T04:47:43;30.90;;;26.17;;
16387;SDS011;8303;53.446;9.988;2023-04-15T04:50:12;44.57;;;40.47;;
16387;SDS011;8303;53.446;9.988;2023-04-15T04:52:39;56.50;;;51.20;;
16387;SDS011;8303;53.446;9.988;2023-04-15T04:55:06;60.03;;;55.30;;
16387;SDS011;8303;53.446;9.988;2023-04-15T04:57:36;37.07;;;33.17;;
16387;SDS011;8303;53.446;9.988;2023-04-15T05:00:04;34.83;;;27.57;;
16387;SDS011;8303;53.446;9.988;2023-04-15T05:02:32;38.30;;;34.17;;
16387;SDS011;8303;53.446;9.988;2023-04-15T05:05:01;53.50;;;48.60;;
16387;SDS011;8303;53.446;9.988;2023-04-15T05:07:29;43.27;;;38.67;;
16387;SDS011;8303;53.446;9.988;2023-04-15T05:09:56;69.10;;;63.27;;
16387;SDS011;8303;53.446;9.988;2023-04-15T05:12:23;56.87;;;51.63;;
16387;SDS011;8303;53.446;9.988;2023-04-15T05:14:50;53.10;;;43.10;;
16387;SDS011;8303;53.446;9.988;2023-04-15T05:17:18;72.90;;;66.30;;
16387;SDS011;8303;53.446;9.988;2023-04-15T05:19:45;46.87;;;34.93;;
16387;SDS011;8303;53.446;9.988;2023-04-15T05:22:14;57.23;;;50.97;;
16387;SDS011;8303;53.446;9.988;2023-04-15T05:24:41;54.77;;;42.00;;
16387;SDS011;8303;53.446;9.988;2023-04-15T05:27:09;59.50;;;53.17;;
16387;SDS011;8303;53.446;9.988;2023-04-15T05:29:36;59.27;;;49.40;;
16387;SDS011;8303;53.446;9.988;2023-04-15T05:32:03;50.57;;;36.17;;
16387;SDS011;8303;53.446;9.988;2023-04-15T05:34:31;62.30;;;48.10;;
16387;SDS011;8303;53.446;9.988;2023-04-15T05:36:59;52.83;;;34.57;;
16387;SDS011;8303;53.446;9.988;2023-04-15T05:39:28;75.70;;;67.93;;
16387;SDS011;8303;53.446;9.988;2023-04-15T05:41:56;53.73;;;36.03;;
16387;SDS011;8303;53.446;9.988;2023-04-15T05:44:24;51.07;;;36.37;;
16387;SDS011;8303;53.446;9.988;2023-04-15T05:46:51;60.10;;;53.37;;
16387;SDS011;8303;53.446;9.988;2023-04-15T05:49:18;54.43;;;36.10;;
16387;SDS011;8303;53.446;9.988;2023-04-15T05:51:46;106.93;;;96.77;;
16387;SDS011;8303;53.446;9.988;2023-04-15T05:54:15;76.23;;;65.40;;
16387;SDS011;8303;53.446;9.988;2023-04-15T05:56:47;59.93;;;39.60;;
16387;SDS011;8303;53.446;9.988;2023-04-15T05:59:14;67.97;;;45.50;;
16387;SDS011;8303;53.446;9.988;2023-04-15T06:01:42;63.17;;;39.60;;
16387;SDS011;8303;53.446;9.988;2023-04-15T06:04:09;87.97;;;79.03;;
16387;SDS011;8303;53.446;9.988;2023-04-15T06:06:36;62.00;;;39.87;;
16387;SDS011;8303;53.446;9.988;2023-04-15T06:09:04;65.67;;;49.43;;
16387;SDS011;8303;53.446;9.988;2023-04-15T06:11:31;86.00;;;76.90;;
16387;SDS011;8303;53.446;9.988;2023-04-15T06:14:00;60.80;;;47.93;;
16387;SDS011;8303;53.446;9.988;2023-04-15T06:16:27;61.03;;;35.60;;
16387;SDS011;8303;53.446;9.988;2023-04-15T06:18:54;70.37;;;39.07;;
16387;SDS011;8303;53.446;9.988;2023-04-15T06:21:22;61.17;;;40.03;;
16387;SDS011;8303;53.446;9.988;2023-04-15T06:23:49;63.53;;;40.33;;
16387;SDS011;8303;53.446;9.988;2023-04-15T06:26:16;84.73;;;69.13;;
16387;SDS011;8303;53.446;9.988;2023-04-15T06:28:43;67.60;;;39.03;;
16387;SDS011;8303;53.446;9.988;2023-04-15T06:31:12;58.83;;;35.77;;
16387;SDS011;8303;53.446;9.988;2023-04-15T06:33:40;66.63;;;46.10;;
16387;SDS011;8303;53.446;9.988;2023-04-15T06:36:07;71.03;;;42.97;;
16387;SDS011;8303;53.446;9.988;2023-04-15T06:38:34;77.37;;;48.67;;
16387;SDS011;8303;53.446;9.988;2023-04-15T06:41:01;73.10;;;45.07;;
16387;SDS011;8303;53.446;9.988;2023-04-15T06:43:29;111.43;;;100.20;;
16387;SDS011;8303;53.446;9.988;2023-04-15T06:45:57;68.53;;;48.40;;
16387;SDS011;8303;53.446;9.988;2023-04-15T06:48:25;71.07;;;45.73;;
16387;SDS011;8303;53.446;9.988;2023-04-15T06:50:53;86.20;;;67.23;;
16387;SDS011;8303;53.446;9.988;2023-04-15T06:53:23;72.37;;;43.53;;
16387;SDS011;8303;53.446;9.988;2023-04-15T06:55:51;84.40;;;53.23;;
16387;SDS011;8303;53.446;9.988;2023-04-15T06:58:18;82.93;;;53.87;;
16387;SDS011;8303;53.446;9.988;2023-04-15T07:00:45;82.93;;;54.23;;
16387;SDS011;8303;53.446;9.988;2023-04-15T07:03:13;79.87;;;46.07;;
16387;SDS011;8303;53.446;9.988;2023-04-15T07:05:42;89.23;;;64.63;;
16387;SDS011;8303;53.446;9.988;2023-04-15T07:08:09;88.10;;;55.23;;
16387;SDS011;8303;53.446;9.988;2023-04-15T07:10:36;82.13;;;53.23;;
16387;SDS011;8303;53.446;9.988;2023-04-15T07:13:03;181.07;;;165.73;;
16387;SDS011;8303;53.446;9.988;2023-04-15T07:15:33;92.37;;;72.93;;
16387;SDS011;8303;53.446;9.988;2023-04-15T07:18:00;80.37;;;46.50;;
16387;SDS011;8303;53.446;9.988;2023-04-15T07:20:27;87.60;;;44.30;;
16387;SDS011;8303;53.446;9.988;2023-04-15T07:22:56;88.63;;;52.07;;
16387;SDS011;8303;53.446;9.988;2023-04-15T07:25:23;92.60;;;61.43;;
16387;SDS011;8303;53.446;9.988;2023-04-15T07:27:51;79.27;;;46.50;;
16387;SDS011;8303;53.446;9.988;2023-04-15T07:30:19;97.37;;;63.93;;
16387;SDS011;8303;53.446;9.988;2023-04-15T07:32:47;76.37;;;45.73;;
16387;SDS011;8303;53.446;9.988;2023-04-15T07:35:14;101.53;;;59.83;;
16387;SDS011;8303;53.446;9.988;2023-04-15T07:37:42;90.13;;;57.83;;
16387;SDS011;8303;53.446;9.988;2023-04-15T07:40:11;83.47;;;47.00;;
16387;SDS011;8303;53.446;9.988;2023-04-15T07:42:40;111.97;;;98.57;;
16387;SDS011;8303;53.446;9.988;2023-04-15T07:45:08;95.10;;;73.93;;
16387;SDS011;8303;53.446;9.988;2023-04-15T07:47:35;92.53;;;60.83;;
16387;SDS011;8303;53.446;9.988;2023-04-15T07:50:03;87.73;;;67.30;;
16387;SDS011;8303;53.446;9.988;2023-04-15T07:52:31;87.83;;;69.20;;
16387;SDS011;8303;53.446;9.988;2023-04-15T07:55:03;87.87;;;59.37;;
16387;SDS011;8303;53.446;9.988;2023-04-15T07:57:32;76.67;;;48.97;;
16387;SDS011;8303;53.446;9.988;2023-04-15T07:59:59;71.93;;;48.97;;
16387;SDS011;8303;53.446;9.988;2023-04-15T08:02:28;198.97;;;182.70;;
16387;SDS011;8303;53.446;9.988;2023-04-15T08:04:55;201.00;;;184.67;;
16387;SDS011;8303;53.446;9.988;2023-04-15T08:07:23;101.30;;;90.33;;
16387;SDS011;8303;53.446;9.988;2023-04-15T08:09:51;86.43;;;70.80;;
16387;SDS011;8303;53.446;9.988;2023-04-15T08:12:18;87.00;;;67.50;;
16387;SDS011;8303;53.446;9.988;2023-04-15T08:14:48;70.97;;;51.67;;
16387;SDS011;8303;53.446;9.988;2023-04-15T08:17:16;78.77;;;49.47;;
16387;SDS011;8303;53.446;9.988;2023-04-15T08:19:43;132.10;;;120.23;;
16387;SDS011;8303;53.446;9.988;2023-04-15T08:22:10;82.77;;;63.03;;
16387;SDS011;8303;53.446;9.988;2023-04-15T08:24:38;410.07;;;382.67;;
16387;SDS011;8303;53.446;9.988;2023-04-15T08:27:05;75.70;;;51.60;;
16387;SDS011;8303;53.446;9.988;2023-04-15T08:29:33;80.73;;;53.40;;
16387;SDS011;8303;53.446;9.988;2023-04-15T08:32:02;77.50;;;59.07;;
16387;SDS011;8303;53.446;9.988;2023-04-15T08:34:29;75.83;;;62.40;;
16387;SDS011;8303;53.446;9.988;2023-04-15T08:36:57;85.27;;;76.33;;
16387;SDS011;8303;53.446;9.988;2023-04-15T08:39:24;76.57;;;64.40;;
16387;SDS011;8303;53.446;9.988;2023-04-15T08:41:58;80.90;;;72.20;;
16387;SDS011;8303;53.446;9.988;2023-04-15T08:44:28;83.63;;;74.40;;
16387;SDS011;8303;53.446;9.988;2023-04-15T08:46:58;81.87;;;73.20;;
16387;SDS011;8303;53.446;9.988;2023-04-15T08:49:30;75.03;;;66.90;;
16387;SDS011;8303;53.446;9.988;2023-04-15T08:51:58;75.30;;;66.73;;
16387;SDS011;8303;53.446;9.988;2023-04-15T08:54:26;75.37;;;60.07;;
16387;SDS011;8303;53.446;9.988;2023-04-15T08:56:53;92.20;;;82.63;;
16387;SDS011;8303;53.446;9.988;2023-04-15T08:59:22;95.57;;;86.47;;
16387;SDS011;8303;53.446;9.988;2023-04-15T09:01:56;76.00;;;63.57;;
16387;SDS011;8303;53.446;9.988;2023-04-15T09:04:25;82.00;;;69.50;;
16387;SDS011;8303;53.446;9.988;2023-04-15T09:06:53;118.93;;;108.00;;
16387;SDS011;8303;53.446;9.988;2023-04-15T09:09:21;78.00;;;68.33;;
16387;SDS011;8303;53.446;9.988;2023-04-15T09:11:48;89.53;;;74.33;;
16387;SDS011;8303;53.446;9.988;2023-04-15T09:14:16;91.67;;;82.17;;
16387;SDS011;8303;53.446;9.988;2023-04-15T09:16:55;96.53;;;86.10;;
16387;SDS011;8303;53.446;9.988;2023-04-15T09:19:25;88.30;;;78.80;;
16387;SDS011;8303;53.446;9.988;2023-04-15T09:21:54;84.37;;;72.10;;
16387;SDS011;8303;53.446;9.988;2023-04-15T09:24:23;79.07;;;68.10;;
16387;SDS011;8303;53.446;9.988;2023-04-15T09:26:51;83.33;;;74.27;;
16387;SDS011;8303;53.446;9.988;2023-04-15T09:29:20;72.73;;;62.33;;
16387;SDS011;8303;53.446;9.988;2023-04-15T09:31:50;72.73;;;57.57;;
16387;SDS011;8303;53.446;9.988;2023-04-15T09:34:18;113.30;;;103.20;;
16387;SDS011;8303;53.446;9.988;2023-04-15T09:36:56;104.87;;;94.57;;
16387;SDS011;8303;53.446;9.988;2023-04-15T09:39:23;79.93;;;71.60;;
16387;SDS011;8303;53.446;9.988;2023-04-15T09:42:04;86.27;;;77.33;;
16387;SDS011;8303;53.446;9.988;2023-04-15T09:44:32;75.40;;;63.50;;
16387;SDS011;8303;53.446;9.988;2023-04-15T09:47:00;93.93;;;84.50;;
16387;SDS011;8303;53.446;9.988;2023-04-15T09:49:29;89.10;;;80.17;;
16387;SDS011;8303;53.446;9.988;2023-04-15T09:51:58;112.67;;;102.87;;
16387;SDS011;8303;53.446;9.988;2023-04-15T09:54:31;95.33;;;85.70;;
16387;SDS011;8303;53.446;9.988;2023-04-15T09:57:09;123.10;;;112.30;;
16387;SDS011;8303;53.446;9.988;2023-04-15T09:59:38;108.47;;;98.10;;
16387;SDS011;8303;53.446;9.988;2023-04-15T10:02:16;107.70;;;97.80;;
16387;SDS011;8303;53.446;9.988;2023-04-15T10:04:45;179.37;;;166.13;;
16387;SDS011;8303;53.446;9.988;2023-04-15T10:07:16;105.63;;;96.27;;
16387;SDS011;8303;53.446;9.988;2023-04-15T10:09:46;135.00;;;123.73;;
16387;SDS011;8303;53.446;9.988;2023-04-15T10:12:14;97.93;;;88.70;;
16387;SDS011;8303;53.446;9.988;2023-04-15T10:14:43;143.10;;;132.07;;
16387;SDS011;8303;53.446;9.988;2023-04-15T10:17:14;119.77;;;109.27;;
16387;SDS011;8303;53.446;9.988;2023-04-15T10:19:44;117.73;;;108.00;;
16387;SDS011;8303;53.446;9.988;2023-04-15T10:22:12;153.27;;;140.87;;
16387;SDS011;8303;53.446;9.988;2023-04-15T10:24:42;118.13;;;108.27;;
16387;SDS011;8303;53.446;9.988;2023-04-15T10:27:11;115.80;;;105.97;;
16387;SDS011;8303;53.446;9.988;2023-04-15T10:29:39;121.50;;;112.13;;
16387;SDS011;8303;53.446;9.988;2023-04-15T10:32:07;108.17;;;99.17;;
16387;SDS011;8303;53.446;9.988;2023-04-15T10:34:36;154.07;;;142.37;;
16387;SDS011;8303;53.446;9.988;2023-04-15T10:37:04;136.63;;;125.97;;
16387;SDS011;8303;53.446;9.988;2023-04-15T10:39:38;180.53;;;167.97;;
16387;SDS011;8303;53.446;9.988;2023-04-15T10:42:09;151.07;;;139.73;;
16387;SDS011;8303;53.446;9.988;2023-04-15T10:44:37;188.10;;;175.30;;
16387;SDS011;8303;53.446;9.988;2023-04-15T10:47:10;132.63;;;122.87;;
16387;SDS011;8303;53.446;9.988;2023-04-15T10:49:43;160.33;;;148.93;;
16387;SDS011;8303;53.446;9.988;2023-04-15T10:52:13;136.30;;;126.13;;
16387;SDS011;8303;53.446;9.988;2023-04-15T10:54:42;213.87;;;199.67;;
16387;SDS011;8303;53.446;9.988;2023-04-15T10:57:14;218.73;;;204.13;;
16387;SDS011;8303;53.446;9.988;2023-04-15T11:00:00;173.27;;;161.67;;
16387;SDS011;8303;53.446;9.988;2023-04-15T11:05:21;145.83;;;135.40;;
16387;SDS011;8303;53.446;9.988;2023-04-15T11:08:11;144.43;;;134.37;;
16387;SDS011;8303;53.446;9.988;2023-04-15T11:10:49;168.40;;;157.17;;
16387;SDS011;8303;53.446;9.988;2023-04-15T11:13:26;118.60;;;109.47;;
16387;SDS011;8303;53.446;9.988;2023-04-15T11:15:56;158.13;;;147.80;;
16387;SDS011;8303;53.446;9.988;2023-04-15T11:18:27;140.50;;;131.30;;
16387;SDS011;8303;53.446;9.988;2023-04-15T11:20:56;139.17;;;130.40;;
16387;SDS011;8303;53.446;9.988;2023-04-15T11:23:30;232.87;;;219.27;;
16387;SDS011;8303;53.446;9.988;2023-04-15T11:26:00;150.73;;;141.57;;
16387;SDS011;8303;53.446;9.988;2023-04-15T11:28:30;172.17;;;161.93;;
16387;SDS011;8303;53.446;9.988;2023-04-15T11:31:04;235.13;;;220.73;;
16387;SDS011;8303;53.446;9.988;2023-04-15T11:33:32;161.97;;;152.07;;
16387;SDS011;8303;53.446;9.988;2023-04-15T11:36:00;177.77;;;167.47;;
16387;SDS011;8303;53.446;9.988;2023-04-15T11:38:29;148.93;;;139.70;;
16387;SDS011;8303;53.446;9.988;2023-04-15T11:40:57;155.93;;;146.77;;
16387;SDS011;8303;53.446;9.988;2023-04-15T11:43:24;124.50;;;116.63;;
16387;SDS011;8303;53.446;9.988;2023-04-15T11:45:52;177.37;;;166.47;;
16387;SDS011;8303;53.446;9.988;2023-04-15T11:48:21;133.00;;;124.63;;
16387;SDS011;8303;53.446;9.988;2023-04-15T11:50:53;133.67;;;125.43;;
16387;SDS011;8303;53.446;9.988;2023-04-15T11:53:22;143.73;;;135.00;;
16387;SDS011;8303;53.446;9.988;2023-04-15T11:55:52;149.60;;;140.17;;
16387;SDS011;8303;53.446;9.988;2023-04-15T11:58:20;185.23;;;174.40;;
16387;SDS011;8303;53.446;9.988;2023-04-15T12:00:50;176.30;;;165.93;;
16387;SDS011;8303;53.446;9.988;2023-04-15T12:03:22;188.40;;;177.47;;
16387;SDS011;8303;53.446;9.988;2023-04-15T12:06:03;177.47;;;167.13;;
16387;SDS011;8303;53.446;9.988;2023-04-15T12:08:48;194.50;;;183.70;;
16387;SDS011;8303;53.446;9.988;2023-04-15T12:11:28;174.93;;;165.00;;
16387;SDS011;8303;53.446;9.988;2023-04-15T12:14:04;163.57;;;154.37;;
16387;SDS011;8303;53.446;9.988;2023-04-15T12:16:34;169.17;;;159.60;;
16387;SDS011;8303;53.446;9.988;2023-04-15T12:19:04;170.73;;;161.00;;
16387;SDS011;8303;53.446;9.988;2023-04-15T12:21:35;164.17;;;154.67;;
16387;SDS011;8303;53.446;9.988;2023-04-15T12:24:04;173.03;;;163.07;;
16387;SDS011;8303;53.446;9.988;2023-04-15T12:26:35;185.93;;;175.63;;
16387;SDS011;8303;53.446;9.988;2023-04-15T12:29:04;170.30;;;160.77;;
16387;SDS011;8303;53.446;9.988;2023-04-15T12:31:32;158.30;;;149.27;;
16387;SDS011;8303;53.446;9.988;2023-04-15T12:34:01;250.17;;;236.60;;
16387;SDS011;8303;53.446;9.988;2023-04-15T12:36:29;270.80;;;255.87;;
16387;SDS011;8303;53.446;9.988;2023-04-15T12:39:00;176.67;;;166.77;;
16387;SDS011;8303;53.446;9.988;2023-04-15T12:41:29;157.93;;;149.10;;
16387;SDS011;8303;53.446;9.988;2023-04-15T12:43:58;218.47;;;206.37;;
16387;SDS011;8303;53.446;9.988;2023-04-15T12:46:26;174.37;;;164.40;;
16387;SDS011;8303;53.446;9.988;2023-04-15T12:48:54;199.00;;;188.03;;
16387;SDS011;8303;53.446;9.988;2023-04-15T12:51:22;231.10;;;218.50;;
16387;SDS011;8303;53.446;9.988;2023-04-15T12:53:50;214.67;;;202.67;;
16387;SDS011;8303;53.446;9.988;2023-04-15T12:56:19;205.07;;;193.73;;
16387;SDS011;8303;53.446;9.988;2023-04-15T12:58:46;282.67;;;266.70;;
16387;SDS011;8303;53.446;9.988;2023-04-15T13:01:15;408.70;;;382.77;;
16387;SDS011;8303;53.446;9.988;2023-04-15T13:03:42;287.77;;;271.60;;
16387;SDS011;8303;53.446;9.988;2023-04-15T13:06:10;397.80;;;373.97;;
16387;SDS011;8303;53.446;9.988;2023-04-15T13:08:37;182.07;;;171.97;;
16387;SDS011;8303;53.446;9.988;2023-04-15T13:11:04;204.50;;;193.57;;
16387;SDS011;8303;53.446;9.988;2023-04-15T13:13:32;237.47;;;224.43;;
16387;SDS011;8303;53.446;9.988;2023-04-15T13:16:00;201.67;;;191.07;;
16387;SDS011;8303;53.446;9.988;2023-04-15T13:18:28;373.90;;;352.10;;
16387;SDS011;8303;53.446;9.988;2023-04-15T13:20:56;269.90;;;254.07;;
16387;SDS011;8303;53.446;9.988;2023-04-15T13:23:23;241.87;;;228.53;;
16387;SDS011;8303;53.446;9.988;2023-04-15T13:25:50;229.87;;;217.13;;
16387;SDS011;8303;53.446;9.988;2023-04-15T13:28:18;265.03;;;250.77;;
16387;SDS011;8303;53.446;9.988;2023-04-15T13:30:45;209.70;;;198.33;;
16387;SDS011;8303;53.446;9.988;2023-04-15T13:33:13;192.73;;;182.27;;
16387;SDS011;8303;53.446;9.988;2023-04-15T13:35:43;195.93;;;184.70;;
16387;SDS011;8303;53.446;9.988;2023-04-15T13:38:10;257.20;;;243.17;;
16387;SDS011;8303;53.446;9.988;2023-04-15T13:40:37;346.87;;;323.13;;
16387;SDS011;8303;53.446;9.988;2023-04-15T13:43:05;203.73;;;192.60;;
16387;SDS011;8303;53.446;9.988;2023-04-15T13:45:33;272.47;;;257.07;;
16387;SDS011;8303;53.446;9.988;2023-04-15T13:48:00;209.73;;;198.27;;
16387;SDS011;8303;53.446;9.988;2023-04-15T13:50:27;255.03;;;240.87;;
16387;SDS011;8303;53.446;9.988;2023-04-15T13:52:56;184.93;;;174.80;;
16387;SDS011;8303;53.446;9.988;2023-04-15T13:55:24;171.80;;;162.23;;
16387;SDS011;8303;53.446;9.988;2023-04-15T13:57:52;220.10;;;208.47;;
16387;SDS011;8303;53.446;9.988;2023-04-15T14:00:19;420.03;;;395.00;;
16387;SDS011;8303;53.446;9.988;2023-04-15T14:02:47;255.27;;;241.30;;
16387;SDS011;8303;53.446;9.988;2023-04-15T14:05:14;188.33;;;178.00;;
16387;SDS011;8303;53.446;9.988;2023-04-15T14:07:41;182.47;;;172.37;;
16387;SDS011;8303;53.446;9.988;2023-04-15T14:10:10;200.30;;;189.33;;
16387;SDS011;8303;53.446;9.988;2023-04-15T14:12:37;196.33;;;185.53;;
16387;SDS011;8303;53.446;9.988;2023-04-15T14:15:05;203.03;;;192.27;;
16387;SDS011;8303;53.446;9.988;2023-04-15T14:17:33;238.43;;;225.77;;
16387;SDS011;8303;53.446;9.988;2023-04-15T14:20:00;232.03;;;219.37;;
16387;SDS011;8303;53.446;9.988;2023-04-15T14:22:28;248.00;;;234.80;;
16387;SDS011;8303;53.446;9.988;2023-04-15T14:24:56;238.50;;;225.87;;
16387;SDS011;8303;53.446;9.988;2023-04-15T14:27:25;365.63;;;343.93;;
16387;SDS011;8303;53.446;9.988;2023-04-15T14:29:52;374.40;;;352.43;;
16387;SDS011;8303;53.446;9.988;2023-04-15T14:32:19;298.50;;;282.50;;
16387;SDS011;8303;53.446;9.988;2023-04-15T14:34:47;420.73;;;396.80;;
16387;SDS011;8303;53.446;9.988;2023-04-15T14:37:15;446.43;;;420.77;;
16387;SDS011;8303;53.446;9.988;2023-04-15T14:39:42;355.53;;;335.50;;
16387;SDS011;8303;53.446;9.988;2023-04-15T14:42:09;438.30;;;414.67;;
16387;SDS011;8303;53.446;9.988;2023-04-15T14:44:38;374.50;;;353.57;;
16387;SDS011;8303;53.446;9.988;2023-04-15T14:47:06;205.88;;;195.02;;
16387;SDS011;8303;53.446;9.988;2023-04-15T14:49:34;74.30;;;69.88;;
16387;SDS011;8303;53.446;9.988;2023-04-15T14:52:01;37.72;;;35.10;;
16387;SDS011;8303;53.446;9.988;2023-04-15T14:54:28;47.42;;;44.47;;
16387;SDS011;8303;53.446;9.988;2023-04-15T14:56:56;87.00;;;81.60;;
16387;SDS011;8303;53.446;9.988;2023-04-15T14:59:23;136.57;;;127.72;;
16387;SDS011;8303;53.446;9.988;2023-04-15T15:01:52;201.30;;;190.32;;
16387;SDS011;8303;53.446;9.988;2023-04-15T15:04:20;250.63;;;237.38;;
16387;SDS011;8303;53.446;9.988;2023-04-15T15:06:47;333.13;;;313.80;;
16387;SDS011;8303;53.446;9.988;2023-04-15T15:09:15;231.65;;;219.63;;
16387;SDS011;8303;53.446;9.988;2023-04-15T15:11:43;412.83;;;388.02;;
16387;SDS011;8303;53.446;9.988;2023-04-15T15:14:11;370.30;;;350.43;;
16387;SDS011;8303;53.446;9.988;2023-04-15T15:16:38;562.50;;;528.53;;
16387;SDS011;8303;53.446;9.988;2023-04-15T15:19:07;449.97;;;425.40;;
16387;SDS011;8303;53.446;9.988;2023-04-15T15:21:34;462.87;;;436.77;;
16387;SDS011;8303;53.446;9.988;2023-04-15T15:24:01;412.53;;;390.67;;
16387;SDS011;8303;53.446;9.988;2023-04-15T15:26:29;423.43;;;400.70;;
16387;SDS011;8303;53.446;9.988;2023-04-15T15:28:56;301.07;;;285.50;;
16387;SDS011;8303;53.446;9.988;2023-04-15T15:31:24;328.27;;;311.00;;
16387;SDS011;8303;53.446;9.988;2023-04-15T15:33:51;474.13;;;447.57;;
16387;SDS011;8303;53.446;9.988;2023-04-15T15:36:20;554.30;;;521.23;;
16387;SDS011;8303;53.446;9.988;2023-04-15T15:38:47;531.20;;;498.47;;
16387;SDS011;8303;53.446;9.988;2023-04-15T15:41:15;423.17;;;400.40;;
16387;SDS011;8303;53.446;9.988;2023-04-15T15:43:42;491.47;;;464.07;;
16387;SDS011;8303;53.446;9.988;2023-04-15T15:46:09;623.33;;;582.90;;
16387;SDS011;8303;53.446;9.988;2023-04-15T15:48:37;508.60;;;479.97;;
16387;SDS011;8303;53.446;9.988;2023-04-15T15:51:04;514.33;;;485.30;;
16387;SDS011;8303;53.446;9.988;2023-04-15T15:53:33;514.27;;;485.67;;
16387;SDS011;8303;53.446;9.988;2023-04-15T15:56:01;556.37;;;522.90;;
16387;SDS011;8303;53.446;9.988;2023-04-15T15:58:29;602.03;;;564.20;;
16387;SDS011;8303;53.446;9.988;2023-04-15T16:00:57;720.77;;;671.67;;
16387;SDS011;8303;53.446;9.988;2023-04-15T16:03:25;483.87;;;457.63;;
16387;SDS011;8303;53.446;9.988;2023-04-15T16:05:53;518.63;;;489.90;;
16387;SDS011;8303;53.446;9.988;2023-04-15T16:08:21;452.13;;;428.03;;
16387;SDS011;8303;53.446;9.988;2023-04-15T16:10:50;513.77;;;484.90;;
16387;SDS011;8303;53.446;9.988;2023-04-15T16:13:17;461.03;;;436.10;;
16387;SDS011;8303;53.446;9.988;2023-04-15T16:15:45;457.57;;;432.80;;
16387;SDS011;8303;53.446;9.988;2023-04-15T16:18:14;430.43;;;407.17;;
16387;SDS011;8303;53.446;9.988;2023-04-15T16:20:41;490.07;;;463.20;;
16387;SDS011;8303;53.446;9.988;2023-04-15T16:23:11;464.87;;;439.43;;
16387;SDS011;8303;53.446;9.988;2023-04-15T16:25:40;677.53;;;632.47;;
16387;SDS011;8303;53.446;9.988;2023-04-15T16:28:10;420.20;;;398.03;;
16387;SDS011;8303;53.446;9.988;2023-04-15T16:30:38;403.70;;;381.93;;
16387;SDS011;8303;53.446;9.988;2023-04-15T16:33:06;348.13;;;329.67;;
16387;SDS011;8303;53.446;9.988;2023-04-15T16:35:35;353.93;;;335.40;;
16387;SDS011;8303;53.446;9.988;2023-04-15T16:38:03;411.77;;;388.67;;
16387;SDS011;8303;53.446;9.988;2023-04-15T16:40:30;524.90;;;493.03;;
16387;SDS011;8303;53.446;9.988;2023-04-15T16:42:58;469.77;;;441.87;;
16387;SDS011;8303;53.446;9.988;2023-04-15T16:45:27;597.93;;;557.40;;
16387;SDS011;8303;53.446;9.988;2023-04-15T16:47:55;415.67;;;392.17;;
16387;SDS011;8303;53.446;9.988;2023-04-15T16:50:22;416.27;;;394.03;;
16387;SDS011;8303;53.446;9.988;2023-04-15T16:52:49;580.13;;;545.57;;
16387;SDS011;8303;53.446;9.988;2023-04-15T16:55:17;433.70;;;409.57;;
16387;SDS011;8303;53.446;9.988;2023-04-15T16:57:44;657.43;;;614.47;;
16387;SDS011;8303;53.446;9.988;2023-04-15T17:00:12;495.87;;;463.83;;
16387;SDS011;8303;53.446;9.988;2023-04-15T17:02:41;315.87;;;298.80;;
16387;SDS011;8303;53.446;9.988;2023-04-15T17:05:08;593.00;;;555.70;;
16387;SDS011;8303;53.446;9.988;2023-04-15T17:07:35;283.27;;;267.43;;
16387;SDS011;8303;53.446;9.988;2023-04-15T17:10:02;358.87;;;339.10;;
16387;SDS011;8303;53.446;9.988;2023-04-15T17:12:29;358.67;;;339.30;;
16387;SDS011;8303;53.446;9.988;2023-04-15T17:14:56;368.73;;;348.53;;
16387;SDS011;8303;53.446;9.988;2023-04-15T17:17:23;336.23;;;318.30;;
16387;SDS011;8303;53.446;9.988;2023-04-15T17:19:51;348.80;;;329.90;;
16387;SDS011;8303;53.446;9.988;2023-04-15T17:22:18;312.67;;;296.03;;
16387;SDS011;8303;53.446;9.988;2023-04-15T17:24:45;322.43;;;305.00;;
16387;SDS011;8303;53.446;9.988;2023-04-15T17:27:12;369.67;;;348.93;;
16387;SDS011;8303;53.446;9.988;2023-04-15T17:29:39;345.43;;;326.37;;
16387;SDS011;8303;53.446;9.988;2023-04-15T17:32:06;313.67;;;296.50;;
16387;SDS011;8303;53.446;9.988;2023-04-15T17:34:34;334.57;;;316.43;;
16387;SDS011;8303;53.446;9.988;2023-04-15T17:37:02;366.53;;;345.10;;
16387;SDS011;8303;53.446;9.988;2023-04-15T17:39:29;341.60;;;323.07;;
16387;SDS011;8303;53.446;9.988;2023-04-15T17:41:56;388.80;;;366.50;;
16387;SDS011;8303;53.446;9.988;2023-04-15T17:44:23;313.87;;;296.60;;
16387;SDS011;8303;53.446;9.988;2023-04-15T17:46:50;329.80;;;311.73;;
16387;SDS011;8303;53.446;9.988;2023-04-15T17:49:17;426.37;;;401.03;;
16387;SDS011;8303;53.446;9.988;2023-04-15T17:51:44;309.53;;;292.70;;
16387;SDS011;8303;53.446;9.988;2023-04-15T17:54:12;360.87;;;339.60;;
16387;SDS011;8303;53.446;9.988;2023-04-15T17:56:39;328.13;;;310.57;;
16387;SDS011;8303;53.446;9.988;2023-04-15T17:59:06;381.70;;;359.97;;
16387;SDS011;8303;53.446;9.988;2023-04-15T18:01:33;353.10;;;334.07;;
16387;SDS011;8303;53.446;9.988;2023-04-15T18:04:00;380.43;;;359.27;;
16387;SDS011;8303;53.446;9.988;2023-04-15T18:06:27;342.17;;;322.87;;
16387;SDS011;8303;53.446;9.988;2023-04-15T18:08:55;466.83;;;439.20;;
16387;SDS011;8303;53.446;9.988;2023-04-15T18:11:23;784.53;;;722.23;;
16387;SDS011;8303;53.446;9.988;2023-04-15T18:13:50;327.60;;;309.60;;
16387;SDS011;8303;53.446;9.988;2023-04-15T18:16:17;375.17;;;354.80;;
16387;SDS011;8303;53.446;9.988;2023-04-15T18:18:44;399.10;;;376.97;;
16387;SDS011;8303;53.446;9.988;2023-04-15T18:21:11;387.67;;;365.43;;
16387;SDS011;8303;53.446;9.988;2023-04-15T18:23:38;420.80;;;397.47;;
16387;SDS011;8303;53.446;9.988;2023-04-15T18:26:05;361.73;;;341.83;;
16387;SDS011;8303;53.446;9.988;2023-04-15T18:28:33;368.83;;;348.03;;
16387;SDS011;8303;53.446;9.988;2023-04-15T18:31:01;355.33;;;335.23;;
16387;SDS011;8303;53.446;9.988;2023-04-15T18:33:28;299.77;;;282.60;;
16387;SDS011;8303;53.446;9.988;2023-04-15T18:35:56;311.40;;;294.30;;
16387;SDS011;8303;53.446;9.988;2023-04-15T18:38:26;327.30;;;309.30;;
16387;SDS011;8303;53.446;9.988;2023-04-15T18:40:53;337.40;;;318.27;;
16387;SDS011;8303;53.446;9.988;2023-04-15T18:43:20;355.43;;;334.47;;
16387;SDS011;8303;53.446;9.988;2023-04-15T18:45:49;331.27;;;311.80;;
16387;SDS011;8303;53.446;9.988;2023-04-15T18:48:17;229.47;;;216.43;;
16387;SDS011;8303;53.446;9.988;2023-04-15T18:50:43;405.27;;;379.60;;
16387;SDS011;8303;53.446;9.988;2023-04-15T18:53:11;175.53;;;165.10;;
16387;SDS011;8303;53.446;9.988;2023-04-15T18:55:39;251.57;;;236.63;;
16387;SDS011;8303;53.446;9.988;2023-04-15T18:58:06;184.00;;;171.90;;
16387;SDS011;8303;53.446;9.988;2023-04-15T19:00:33;380.03;;;354.77;;
16387;SDS011;8303;53.446;9.988;2023-04-15T19:03:01;190.80;;;178.50;;
16387;SDS011;8303;53.446;9.988;2023-04-15T19:05:29;224.23;;;210.40;;
16387;SDS011;8303;53.446;9.988;2023-04-15T19:07:56;224.57;;;210.43;;
16387;SDS011;8303;53.446;9.988;2023-04-15T19:10:23;133.83;;;125.10;;
16387;SDS011;8303;53.446;9.988;2023-04-15T19:12:52;159.67;;;149.53;;
16387;SDS011;8303;53.446;9.988;2023-04-15T19:15:20;116.30;;;108.60;;